Time,TemperatureF,DewpointF,PressureIn,WindDirection,WindDirectionDegrees,WindSpeedMPH,WindSpeedGustMPH,Humidity,HourlyPrecipIn,Conditions,Clouds,dailyrainin,SoftwareType,DateUTC
2013-07-21 00:00:00,80.3,71.3,29.80,SSE,158,4.0,7.0,74,0.00,,---,0.00,VWS V14.00,2013-07-21 05:00:00,
2013-07-21 00:05:00,80.2,71.2,29.80,SSE,158,4.0,10.0,74,0.00,,---,0.00,VWS V14.00,2013-07-21 05:05:00,
2013-07-21 00:10:00,80.2,71.2,29.80,SSE,158,4.0,10.0,74,0.00,,---,0.00,VWS V14.00,2013-07-21 05:10:00,
2013-07-21 00:15:00,80.1,71.1,29.79,SSE,158,5.0,10.0,74,0.00,,---,0.00,VWS V14.00,2013-07-21 05:15:00,
2013-07-21 00:20:00,80.1,71.1,29.80,SSE,158,4.0,7.0,74,0.00,,---,0.00,VWS V14.00,2013-07-21 05:20:00,
2013-07-21 00:25:00,80.1,71.1,29.80,SSE,158,4.0,9.0,74,0.00,,---,0.00,VWS V14.00,2013-07-21 05:25:00,
2013-07-21 00:30:00,80.0,71.0,29.80,SSE,158,4.0,8.0,74,0.00,,---,0.00,VWS V14.00,2013-07-21 05:30:00,
2013-07-21 00:35:00,79.9,71.3,29.80,SSE,158,4.0,9.0,75,0.00,,---,0.00,VWS V14.00,2013-07-21 05:35:00,
2013-07-21 00:40:00,79.8,71.2,29.79,SSE,158,5.0,9.0,75,0.00,,---,0.00,VWS V14.00,2013-07-21 05:40:00,
2013-07-21 00:45:00,79.7,71.1,29.80,SSE,158,5.0,10.0,75,0.00,,---,0.00,VWS V14.00,2013-07-21 05:45:00,
2013-07-21 00:50:00,79.6,71.0,29.80,SSE,158,5.0,10.0,75,0.00,,---,0.00,VWS V14.00,2013-07-21 05:50:00,
2013-07-21 00:55:00,79.6,71.0,29.80,SSE,158,4.0,7.0,75,0.00,,---,0.00,VWS V14.00,2013-07-21 05:55:00,
2013-07-21 01:00:00,79.5,70.9,29.80,SSE,158,4.0,9.0,75,0.00,,---,0.00,VWS V14.00,2013-07-21 06:00:00,
2013-07-21 01:05:00,79.4,70.8,29.80,SSE,158,4.0,9.0,75,0.00,,---,0.00,VWS V14.00,2013-07-21 06:05:00,
2013-07-21 01:10:00,79.4,71.2,29.81,SSE,158,3.0,6.0,76,0.00,,---,0.00,VWS V14.00,2013-07-21 06:10:00,
2013-07-21 01:15:00,79.3,71.1,29.81,SSE,158,1.0,4.0,76,0.00,,---,0.00,VWS V14.00,2013-07-21 06:15:00,
2013-07-21 01:20:00,79.3,71.1,29.81,SSE,158,0.0,0.0,76,0.00,,---,0.00,VWS V14.00,2013-07-21 06:20:00,
2013-07-21 01:25:00,79.3,71.1,29.81,SSE,158,0.0,0.0,76,0.00,,---,0.00,VWS V14.00,2013-07-21 06:25:00,
2013-07-21 01:30:00,79.2,71.4,29.81,SSE,158,0.0,0.0,77,0.00,,---,0.00,VWS V14.00,2013-07-21 06:30:00,
2013-07-21 01:35:00,79.0,71.2,29.81,SSE,158,0.0,1.0,77,0.00,,---,0.00,VWS V14.00,2013-07-21 06:35:00,
2013-07-21 01:40:00,78.9,71.1,29.81,SSE,158,0.0,0.0,77,0.00,,---,0.00,VWS V14.00,2013-07-21 06:40:00,
2013-07-21 01:45:00,78.7,71.3,29.82,SSE,158,0.0,0.0,78,0.00,,---,0.00,VWS V14.00,2013-07-21 06:45:00,
2013-07-21 01:50:00,78.7,71.3,29.81,SSE,158,2.0,4.0,78,0.00,,---,0.00,VWS V14.00,2013-07-21 06:50:00,
2013-07-21 01:55:00,78.5,71.4,29.82,SE,135,5.0,6.0,79,0.00,,---,0.00,VWS V14.00,2013-07-21 06:55:00,
2013-07-21 02:00:00,78.4,71.0,29.82,NE,45,6.0,12.0,78,0.00,,---,0.00,VWS V14.00,2013-07-21 07:00:00,
2013-07-21 02:05:00,78.4,71.0,29.82,NE,45,4.0,6.0,78,0.00,,---,0.00,VWS V14.00,2013-07-21 07:05:00,
2013-07-21 02:10:00,78.4,71.0,29.82,NE,45,4.0,6.0,78,0.00,,---,0.00,VWS V14.00,2013-07-21 07:10:00,
2013-07-21 02:15:00,78.4,71.0,29.82,NE,45,1.0,3.0,78,0.00,,---,0.00,VWS V14.00,2013-07-21 07:15:00,
2013-07-21 02:20:00,78.4,71.0,29.81,NE,45,0.0,0.0,78,0.00,,---,0.00,VWS V14.00,2013-07-21 07:20:00,
2013-07-21 02:25:00,78.4,71.0,29.81,NE,45,0.0,0.0,78,0.00,,---,0.00,VWS V14.00,2013-07-21 07:25:00,
2013-07-21 02:30:00,78.3,70.9,29.81,NE,45,0.0,0.0,78,0.00,,---,0.00,VWS V14.00,2013-07-21 07:30:00,
2013-07-21 02:35:00,78.3,70.9,29.81,NE,45,3.0,5.0,78,0.00,,---,0.00,VWS V14.00,2013-07-21 07:35:00,
2013-07-21 02:40:00,78.0,70.6,29.81,NE,45,3.0,5.0,78,0.00,,---,0.00,VWS V14.00,2013-07-21 07:40:00,
2013-07-21 02:45:00,77.5,70.1,29.81,NE,45,3.0,4.0,78,0.00,,---,0.00,VWS V14.00,2013-07-21 07:45:00,
2013-07-21 02:50:00,77.2,70.2,29.81,NE,45,3.0,6.0,79,0.00,,---,0.00,VWS V14.00,2013-07-21 07:50:00,
2013-07-21 02:55:00,76.9,69.9,29.81,NE,45,5.0,7.0,79,0.00,,---,0.00,VWS V14.00,2013-07-21 07:55:00,
2013-07-21 03:00:00,76.5,69.5,29.81,NE,45,4.0,5.0,79,0.00,,---,0.00,VWS V14.00,2013-07-21 08:00:00,
2013-07-21 03:05:00,76.2,69.6,29.81,NE,45,2.0,5.0,80,0.00,,---,0.00,VWS V14.00,2013-07-21 08:05:00,
2013-07-21 03:10:00,76.0,69.4,29.81,NE,45,0.0,0.0,80,0.00,,---,0.00,VWS V14.00,2013-07-21 08:10:00,
2013-07-21 03:15:00,75.8,69.6,29.81,NE,45,0.0,3.0,81,0.00,,---,0.00,VWS V14.00,2013-07-21 08:15:00,
2013-07-21 03:20:00,75.6,69.4,29.81,NE,45,3.0,5.0,81,0.00,,---,0.00,VWS V14.00,2013-07-21 08:20:00,
2013-07-21 03:25:00,75.3,69.4,29.80,NE,45,3.0,5.0,82,0.00,,---,0.00,VWS V14.00,2013-07-21 08:25:00,
2013-07-21 03:30:00,75.1,69.2,29.80,NE,45,3.0,5.0,82,0.00,,---,0.00,VWS V14.00,2013-07-21 08:30:00,
2013-07-21 03:35:00,74.9,69.4,29.80,NE,45,2.0,4.0,83,0.00,,---,0.00,VWS V14.00,2013-07-21 08:35:00,
2013-07-21 03:40:00,74.8,69.3,29.80,NE,45,2.0,5.0,83,0.00,,---,0.00,VWS V14.00,2013-07-21 08:40:00,
2013-07-21 03:45:00,74.6,69.1,29.81,NE,45,3.0,4.0,83,0.00,,---,0.00,VWS V14.00,2013-07-21 08:45:00,
2013-07-21 03:50:00,74.4,68.9,29.81,NE,45,3.0,5.0,83,0.00,,---,0.00,VWS V14.00,2013-07-21 08:50:00,
2013-07-21 03:55:00,74.2,69.1,29.81,NE,45,3.0,6.0,84,0.00,,---,0.00,VWS V14.00,2013-07-21 08:55:00,
2013-07-21 04:00:00,74.1,69.0,29.82,NE,45,4.0,7.0,84,0.00,,---,0.00,VWS V14.00,2013-07-21 09:00:00,
2013-07-21 04:05:00,74.0,68.9,29.82,NE,45,4.0,6.0,84,0.00,,---,0.00,VWS V14.00,2013-07-21 09:05:00,
2013-07-21 04:10:00,73.9,68.8,29.82,NE,45,4.0,6.0,84,0.00,,---,0.00,VWS V14.00,2013-07-21 09:10:00,
2013-07-21 04:15:00,73.9,69.1,29.82,NE,45,5.0,9.0,85,0.00,,---,0.00,VWS V14.00,2013-07-21 09:15:00,
2013-07-21 04:20:00,73.8,68.7,29.83,NE,45,5.0,7.0,84,0.00,,---,0.00,VWS V14.00,2013-07-21 09:20:00,
2013-07-21 04:25:00,73.7,68.9,29.82,NE,45,5.0,7.0,85,0.00,,---,0.00,VWS V14.00,2013-07-21 09:25:00,
2013-07-21 04:30:00,73.7,68.9,29.83,NE,45,5.0,9.0,85,0.00,,---,0.00,VWS V14.00,2013-07-21 09:30:00,
2013-07-21 04:35:00,73.7,68.9,29.83,NNE,22,6.0,11.0,85,0.00,,---,0.00,VWS V14.00,2013-07-21 09:35:00,
2013-07-21 04:40:00,73.7,68.9,29.84,North,0,7.0,11.0,85,0.00,,---,0.00,VWS V14.00,2013-07-21 09:40:00,
2013-07-21 04:45:00,73.6,68.8,29.84,North,0,6.0,9.0,85,0.00,,---,0.00,VWS V14.00,2013-07-21 09:45:00,
2013-07-21 04:50:00,73.6,68.8,29.83,North,0,6.0,10.0,85,0.00,,---,0.00,VWS V14.00,2013-07-21 09:50:00,
2013-07-21 04:55:00,73.7,68.6,29.83,North,0,6.0,10.0,84,0.00,,---,0.00,VWS V14.00,2013-07-21 09:55:00,
2013-07-21 05:00:00,73.8,68.7,29.83,NNE,22,7.0,12.0,84,0.00,,---,0.00,VWS V14.00,2013-07-21 10:00:00,
2013-07-21 05:05:00,74.0,68.9,29.83,NNE,22,9.0,14.0,84,0.00,,---,0.00,VWS V14.00,2013-07-21 10:05:00,
2013-07-21 05:10:00,74.1,69.0,29.83,NNE,22,8.0,14.0,84,0.00,,---,0.00,VWS V14.00,2013-07-21 10:10:00,
2013-07-21 05:15:00,74.0,68.5,29.83,NNE,22,10.0,15.0,83,0.00,,---,0.00,VWS V14.00,2013-07-21 10:15:00,
2013-07-21 05:20:00,73.8,68.3,29.83,NNE,22,10.0,15.0,83,0.00,,---,0.00,VWS V14.00,2013-07-21 10:20:00,
2013-07-21 05:25:00,73.6,68.1,29.83,NNE,22,9.0,13.0,83,0.00,,---,0.00,VWS V14.00,2013-07-21 10:25:00,
2013-07-21 05:30:00,73.5,68.0,29.83,NNE,22,7.0,14.0,83,0.00,,---,0.00,VWS V14.00,2013-07-21 10:30:00,
2013-07-21 05:35:00,73.4,67.9,29.83,NNE,22,8.0,14.0,83,0.00,,---,0.00,VWS V14.00,2013-07-21 10:35:00,
2013-07-21 05:40:00,73.4,67.9,29.83,NE,45,9.0,13.0,83,0.00,,---,0.00,VWS V14.00,2013-07-21 10:40:00,
2013-07-21 05:45:00,73.4,67.9,29.83,NE,45,8.0,12.0,83,0.00,,---,0.00,VWS V14.00,2013-07-21 10:45:00,
2013-07-21 05:50:00,73.3,68.2,29.83,NE,45,7.0,12.0,84,0.00,,---,0.00,VWS V14.00,2013-07-21 10:50:00,
2013-07-21 05:55:00,73.2,68.1,29.84,NE,45,8.0,11.0,84,0.00,,---,0.00,VWS V14.00,2013-07-21 10:55:00,
2013-07-21 06:00:00,73.1,68.3,29.84,NE,45,6.0,10.0,85,0.00,,---,0.00,VWS V14.00,2013-07-21 11:00:00,
2013-07-21 06:05:00,73.0,68.2,29.84,NE,45,8.0,12.0,85,0.00,,---,0.00,VWS V14.00,2013-07-21 11:05:00,
2013-07-21 06:10:00,72.9,68.1,29.84,NE,45,8.0,13.0,85,0.00,,---,0.00,VWS V14.00,2013-07-21 11:10:00,
2013-07-21 06:15:00,72.8,68.4,29.84,NE,45,8.0,13.0,86,0.00,,---,0.00,VWS V14.00,2013-07-21 11:15:00,
2013-07-21 06:20:00,72.7,68.3,29.84,NE,45,8.0,13.0,86,0.00,,---,0.00,VWS V14.00,2013-07-21 11:20:00,
2013-07-21 06:25:00,72.6,68.5,29.84,NE,45,10.0,13.0,87,0.00,,---,0.00,VWS V14.00,2013-07-21 11:25:00,
2013-07-21 06:30:00,72.6,68.5,29.83,NE,45,9.0,13.0,87,0.00,,---,0.00,VWS V14.00,2013-07-21 11:30:00,
2013-07-21 06:35:00,72.5,68.4,29.84,ENE,68,8.0,12.0,87,0.00,,---,0.00,VWS V14.00,2013-07-21 11:35:00,
2013-07-21 06:40:00,72.4,68.3,29.84,NE,45,7.0,11.0,87,0.00,,---,0.00,VWS V14.00,2013-07-21 11:40:00,
2013-07-21 06:45:00,72.4,68.3,29.84,NE,45,8.0,11.0,87,0.00,,---,0.00,VWS V14.00,2013-07-21 11:45:00,
2013-07-21 06:50:00,72.3,68.6,29.83,NE,45,7.0,10.0,88,0.00,,---,0.00,VWS V14.00,2013-07-21 11:50:00,
2013-07-21 06:55:00,72.3,68.6,29.83,ENE,68,7.0,11.0,88,0.00,,---,0.00,VWS V14.00,2013-07-21 11:55:00,
2013-07-21 07:00:00,72.2,68.4,29.83,ENE,68,6.0,10.0,88,0.00,,---,0.00,VWS V14.00,2013-07-21 12:00:00,
2013-07-21 07:05:00,72.2,68.4,29.82,ENE,68,6.0,10.0,88,0.00,,---,0.00,VWS V14.00,2013-07-21 12:05:00,
2013-07-21 07:10:00,72.2,68.4,29.82,ENE,68,7.0,11.0,88,0.00,,---,0.00,VWS V14.00,2013-07-21 12:10:00,
2013-07-21 07:15:00,72.2,68.4,29.82,ENE,68,6.0,10.0,88,0.00,,---,0.00,VWS V14.00,2013-07-21 12:15:00,
2013-07-21 07:20:00,72.2,68.4,29.82,ENE,68,8.0,12.0,88,0.00,,---,0.00,VWS V14.00,2013-07-21 12:20:00,
2013-07-21 07:25:00,72.2,68.4,29.82,ENE,68,8.0,13.0,88,0.00,,---,0.00,VWS V14.00,2013-07-21 12:25:00,
2013-07-21 07:30:00,72.3,68.6,29.82,ENE,68,6.0,9.0,88,0.00,,---,0.00,VWS V14.00,2013-07-21 12:30:00,
2013-07-21 07:35:00,72.3,68.6,29.82,ENE,68,5.0,8.0,88,0.00,,---,0.00,VWS V14.00,2013-07-21 12:35:00,
2013-07-21 07:40:00,72.4,68.7,29.82,ENE,68,4.0,6.0,88,0.00,,---,0.00,VWS V14.00,2013-07-21 12:40:00,
2013-07-21 07:45:00,72.6,68.8,29.82,ENE,68,4.0,6.0,88,0.00,,---,0.00,VWS V14.00,2013-07-21 12:45:00,
2013-07-21 07:50:00,72.7,68.9,29.82,ENE,68,4.0,6.0,88,0.00,,---,0.00,VWS V14.00,2013-07-21 12:50:00,
2013-07-21 07:55:00,72.9,69.1,29.82,ENE,68,4.0,6.0,88,0.00,,---,0.00,VWS V14.00,2013-07-21 12:55:00,
2013-07-21 08:00:00,73.1,69.0,29.82,ENE,68,4.0,6.0,87,0.00,,---,0.00,VWS V14.00,2013-07-21 13:00:00,
2013-07-21 08:05:00,73.3,69.2,29.82,ENE,68,4.0,7.0,87,0.00,,---,0.00,VWS V14.00,2013-07-21 13:05:00,
2013-07-21 08:10:00,73.5,69.1,29.82,ENE,68,4.0,7.0,86,0.00,,---,0.00,VWS V14.00,2013-07-21 13:10:00,
2013-07-21 08:15:00,73.5,68.7,29.82,ENE,68,4.0,7.0,85,0.00,,---,0.00,VWS V14.00,2013-07-21 13:15:00,
2013-07-21 08:20:00,73.7,68.9,29.82,ENE,68,4.0,8.0,85,0.00,,---,0.00,VWS V14.00,2013-07-21 13:20:00,
2013-07-21 08:25:00,73.8,69.0,29.82,ENE,68,5.0,9.0,85,0.00,,---,0.00,VWS V14.00,2013-07-21 13:25:00,
2013-07-21 08:30:00,73.9,69.1,29.82,ENE,68,7.0,11.0,85,0.00,,---,0.00,VWS V14.00,2013-07-21 13:30:00,
2013-07-21 08:35:00,74.0,69.2,29.82,ENE,68,5.0,7.0,85,0.00,,---,0.00,VWS V14.00,2013-07-21 13:35:00,
2013-07-21 08:40:00,74.1,69.0,29.82,ENE,68,6.0,10.0,84,0.00,,---,0.00,VWS V14.00,2013-07-21 13:40:00,
2013-07-21 08:45:00,74.1,69.3,29.83,ENE,68,5.0,9.0,85,0.00,,---,0.00,VWS V14.00,2013-07-21 13:45:00,
2013-07-21 08:48:00,74.1,69.3,29.83,ENE,68,5.0,9.0,85,0.00,,---,0.00,VWS V14.00,2013-07-21 13:48:00,
2013-07-21 08:50:00,74.2,69.1,29.83,East,80,4.0,10.0,84,0.00,,---,0.00,VWS V14.00,2013-07-21 13:50:00,
2013-07-21 08:54:00,74.2,69.1,29.82,East,80,5.0,6.0,84,0.00,,---,0.00,VWS V14.00,2013-07-21 13:54:00,
2013-07-21 08:55:00,74.3,69.2,29.82,East,80,5.0,9.0,84,0.00,,---,0.00,VWS V14.00,2013-07-21 13:55:00,
2013-07-21 08:59:00,74.3,69.2,29.82,East,80,1.0,9.0,84,0.00,,---,0.00,VWS V14.00,2013-07-21 13:59:00,
2013-07-21 09:00:00,74.4,69.6,29.82,East,84,6.0,10.0,85,0.00,,---,0.00,VWS V14.00,2013-07-21 14:00:00,
2013-07-21 09:04:00,74.4,69.3,29.83,East,84,6.0,9.0,84,0.00,,---,0.00,VWS V14.00,2013-07-21 14:04:00,
2013-07-21 09:05:00,74.6,69.4,29.82,East,90,3.0,11.0,84,0.00,,---,0.00,VWS V14.00,2013-07-21 14:05:00,
2013-07-21 09:09:00,74.6,69.4,29.82,East,90,4.0,7.0,84,0.00,,---,0.00,VWS V14.00,2013-07-21 14:09:00,
2013-07-21 09:10:00,74.7,69.6,29.83,East,95,9.0,11.0,84,0.00,,---,0.00,VWS V14.00,2013-07-21 14:10:00,
2013-07-21 09:14:00,74.8,69.7,29.83,East,96,6.0,10.0,84,0.00,,---,0.00,VWS V14.00,2013-07-21 14:14:00,
2013-07-21 09:15:00,74.9,69.7,29.83,East,96,8.0,10.0,84,0.00,,---,0.00,VWS V14.00,2013-07-21 14:15:00,
2013-07-21 09:18:00,74.9,69.4,29.83,East,97,5.0,11.0,83,0.00,,---,0.00,VWS V14.00,2013-07-21 14:18:00,
2013-07-21 09:20:00,74.9,69.4,29.83,East,101,7.0,12.0,83,0.00,,---,0.00,VWS V14.00,2013-07-21 14:20:00,
2013-07-21 09:23:00,74.9,69.4,29.83,East,101,5.0,10.0,83,0.00,,---,0.00,VWS V14.00,2013-07-21 14:23:00,
2013-07-21 09:25:00,74.9,69.4,29.83,East,101,6.0,10.0,83,0.00,,---,0.00,VWS V14.00,2013-07-21 14:25:00,
2013-07-21 09:28:00,74.9,69.4,29.83,East,101,6.0,9.0,83,0.00,,---,0.00,VWS V14.00,2013-07-21 14:28:00,
2013-07-21 09:30:00,75.0,69.5,29.83,ESE,102,9.0,10.0,83,0.00,,---,0.00,VWS V14.00,2013-07-21 14:30:00,
2013-07-21 09:33:00,75.0,69.5,29.83,ESE,102,6.0,10.0,83,0.00,,---,0.00,VWS V14.00,2013-07-21 14:33:00,
2013-07-21 09:35:00,75.0,69.5,29.83,ESE,102,4.0,10.0,83,0.00,,---,0.00,VWS V14.00,2013-07-21 14:35:00,
2013-07-21 09:38:00,75.1,69.6,29.83,ESE,102,2.0,4.0,83,0.00,,---,0.00,VWS V14.00,2013-07-21 14:38:00,
2013-07-21 09:40:00,75.1,69.6,29.83,ESE,102,0.0,4.0,83,0.00,,---,0.00,VWS V14.00,2013-07-21 14:40:00,
2013-07-21 09:43:00,75.2,69.7,29.84,ESE,102,0.0,0.0,83,0.00,,---,0.00,VWS V14.00,2013-07-21 14:43:00,
2013-07-21 09:45:00,75.2,69.7,29.85,ENE,58,6.0,9.0,83,0.00,,---,0.00,VWS V14.00,2013-07-21 14:45:00,
2013-07-21 09:48:00,75.2,69.7,29.85,NNW,338,7.0,14.0,83,0.00,,---,0.00,VWS V14.00,2013-07-21 14:48:00,
2013-07-21 09:50:00,75.2,69.7,29.86,NW,324,11.0,14.0,83,0.00,,---,0.00,VWS V14.00,2013-07-21 14:50:00,
2013-07-21 09:53:00,75.2,70.0,29.86,NW,321,9.0,14.0,84,0.00,,---,0.00,VWS V14.00,2013-07-21 14:53:00,
2013-07-21 09:55:00,74.9,70.1,29.86,NNW,338,9.0,14.0,85,0.00,,---,0.01,VWS V14.00,2013-07-21 14:55:00,
2013-07-21 09:58:00,74.8,70.0,29.86,NNW,346,6.0,12.0,85,0.00,,---,0.01,VWS V14.00,2013-07-21 14:58:00,
2013-07-21 10:00:00,74.3,69.8,29.86,NNW,346,4.0,12.0,86,0.00,,---,0.01,VWS V14.00,2013-07-21 15:00:00,
2013-07-21 10:03:00,74.1,69.7,29.86,NNW,346,1.0,5.0,86,0.00,,---,0.01,VWS V14.00,2013-07-21 15:03:00,
2013-07-21 10:05:00,73.7,69.6,29.85,North,355,5.0,6.0,87,0.07,,---,0.02,VWS V14.00,2013-07-21 15:05:00,
2013-07-21 10:08:00,73.4,69.3,29.85,North,11,6.0,7.0,87,0.07,,---,0.02,VWS V14.00,2013-07-21 15:08:00,
2013-07-21 10:10:00,72.9,69.1,29.85,NNE,17,5.0,7.0,88,0.09,,---,0.03,VWS V14.00,2013-07-21 15:10:00,
2013-07-21 10:13:00,72.8,69.4,29.86,NNE,17,5.0,7.0,89,0.09,,---,0.03,VWS V14.00,2013-07-21 15:13:00,
2013-07-21 10:15:00,72.5,69.1,29.85,NNE,17,6.0,7.0,89,0.09,,---,0.03,VWS V14.00,2013-07-21 15:15:00,
2013-07-21 10:18:00,72.4,69.3,29.85,NNE,17,4.0,6.0,90,0.09,,---,0.03,VWS V14.00,2013-07-21 15:18:00,
2013-07-21 10:20:00,72.3,69.5,29.85,NNE,24,6.0,7.0,91,0.07,,---,0.04,VWS V14.00,2013-07-21 15:20:00,
2013-07-21 10:23:00,72.3,69.5,29.85,NNE,24,2.0,6.0,91,0.07,,---,0.04,VWS V14.00,2013-07-21 15:23:00,
2013-07-21 10:25:00,72.4,69.6,29.84,NE,36,6.0,9.0,91,0.09,,---,0.04,VWS V14.00,2013-07-21 15:25:00,
2013-07-21 10:28:00,72.4,69.6,29.84,NE,42,5.0,9.0,91,0.09,,---,0.05,VWS V14.00,2013-07-21 15:28:00,
2013-07-21 10:30:00,72.5,70.1,29.84,NE,46,5.0,9.0,92,0.09,,---,0.05,VWS V14.00,2013-07-21 15:30:00,
2013-07-21 10:33:00,72.5,70.1,29.85,NE,46,7.0,7.0,92,0.09,,---,0.05,VWS V14.00,2013-07-21 15:33:00,
2013-07-21 10:35:00,72.6,70.2,29.85,NE,46,6.0,9.0,92,0.06,,---,0.05,VWS V14.00,2013-07-21 15:35:00,
2013-07-21 10:38:00,72.6,70.2,29.85,NE,46,5.0,8.0,92,0.05,,---,0.06,VWS V14.00,2013-07-21 15:38:00,
2013-07-21 10:40:00,72.7,70.2,29.85,NE,51,8.0,10.0,92,0.05,,---,0.06,VWS V14.00,2013-07-21 15:40:00,
2013-07-21 10:43:00,72.8,70.3,29.85,NE,51,9.0,10.0,92,0.05,,---,0.06,VWS V14.00,2013-07-21 15:43:00,
2013-07-21 10:45:00,72.9,70.8,29.85,NE,53,4.0,10.0,93,0.11,,---,0.07,VWS V14.00,2013-07-21 15:45:00,
2013-07-21 10:48:00,73.0,70.9,29.85,NE,54,5.0,8.0,93,0.11,,---,0.07,VWS V14.00,2013-07-21 15:48:00,
2013-07-21 10:53:00,73.1,71.0,29.85,NE,55,5.0,7.0,93,0.09,,---,0.08,VWS V14.00,2013-07-21 15:53:00,
2013-07-21 10:55:00,73.2,71.1,29.85,NE,55,5.0,9.0,93,0.09,,---,0.08,VWS V14.00,2013-07-21 15:55:00,
2013-07-21 10:58:00,73.2,71.1,29.85,NE,55,5.0,5.0,93,0.09,,---,0.09,VWS V14.00,2013-07-21 15:58:00,
2013-07-21 11:00:00,73.3,71.2,29.85,NE,55,6.0,7.0,93,0.09,,---,0.09,VWS V14.00,2013-07-21 16:00:00,
2013-07-21 11:03:00,73.3,71.2,29.84,NE,56,5.0,7.0,93,0.09,,---,0.09,VWS V14.00,2013-07-21 16:03:00,
2013-07-21 11:05:00,73.4,71.3,29.84,ENE,73,7.0,10.0,93,0.08,,---,0.10,VWS V14.00,2013-07-21 16:05:00,
2013-07-21 11:08:00,73.4,71.3,29.84,ENE,78,6.0,11.0,93,0.08,,---,0.10,VWS V14.00,2013-07-21 16:08:00,
2013-07-21 11:10:00,73.4,71.3,29.84,East,84,5.0,11.0,93,0.12,,---,0.11,VWS V14.00,2013-07-21 16:10:00,
2013-07-21 11:13:00,73.3,71.2,29.84,East,84,4.0,6.0,93,0.12,,---,0.11,VWS V14.00,2013-07-21 16:13:00,
2013-07-21 11:15:00,73.3,71.2,29.84,East,84,3.0,7.0,93,0.11,,---,0.12,VWS V14.00,2013-07-21 16:15:00,
2013-07-21 11:18:00,73.3,71.2,29.84,East,84,3.0,6.0,93,0.11,,---,0.12,VWS V14.00,2013-07-21 16:18:00,
2013-07-21 11:20:00,73.4,71.3,29.84,East,84,5.0,6.0,93,0.14,,---,0.13,VWS V14.00,2013-07-21 16:20:00,
2013-07-21 11:23:00,73.5,71.4,29.84,East,84,5.0,7.0,93,0.14,,---,0.13,VWS V14.00,2013-07-21 16:23:00,
2013-07-21 11:25:00,73.5,71.4,29.84,East,84,4.0,7.0,93,0.11,,---,0.14,VWS V14.00,2013-07-21 16:25:00,
2013-07-21 11:28:00,73.6,71.5,29.84,East,84,4.0,4.0,93,0.11,,---,0.14,VWS V14.00,2013-07-21 16:28:00,
2013-07-21 11:30:00,73.7,71.6,29.84,East,84,6.0,6.0,93,0.13,,---,0.15,VWS V14.00,2013-07-21 16:30:00,
2013-07-21 11:33:00,73.7,71.6,29.84,East,84,2.0,6.0,93,0.13,,---,0.15,VWS V14.00,2013-07-21 16:33:00,
2013-07-21 11:35:00,73.9,71.8,29.84,East,84,2.0,6.0,93,0.10,,---,0.16,VWS V14.00,2013-07-21 16:35:00,
2013-07-21 11:38:00,73.9,71.8,29.84,East,84,3.0,5.0,93,0.10,,---,0.16,VWS V14.00,2013-07-21 16:38:00,
2013-07-21 11:40:00,74.0,71.8,29.84,East,84,4.0,5.0,93,0.11,,---,0.17,VWS V14.00,2013-07-21 16:40:00,
2013-07-21 11:43:00,74.0,72.2,29.84,East,84,3.0,5.0,94,0.11,,---,0.17,VWS V14.00,2013-07-21 16:43:00,
2013-07-21 11:45:00,74.1,71.9,29.85,East,84,2.0,6.0,93,0.10,,---,0.17,VWS V14.00,2013-07-21 16:45:00,
2013-07-21 11:48:00,74.1,71.9,29.85,East,84,4.0,5.0,93,0.09,,---,0.17,VWS V14.00,2013-07-21 16:48:00,
2013-07-21 11:50:00,74.1,71.9,29.85,East,84,3.0,5.0,93,0.09,,---,0.18,VWS V14.00,2013-07-21 16:50:00,
2013-07-21 11:53:00,74.1,71.9,29.85,East,84,3.0,4.0,93,0.09,,---,0.18,VWS V14.00,2013-07-21 16:53:00,
2013-07-21 11:55:00,74.2,72.1,29.85,East,84,4.0,6.0,93,0.10,,---,0.19,VWS V14.00,2013-07-21 16:55:00,
2013-07-21 11:58:00,74.1,71.9,29.85,East,84,4.0,5.0,93,0.10,,---,0.19,VWS V14.00,2013-07-21 16:58:00,
2013-07-21 12:00:00,74.1,71.9,29.85,East,84,4.0,6.0,93,0.08,,---,0.19,VWS V14.00,2013-07-21 17:00:00,
2013-07-21 12:03:00,74.1,71.9,29.85,East,84,4.0,5.0,93,0.08,,---,0.20,VWS V14.00,2013-07-21 17:03:00,
2013-07-21 12:05:00,74.2,72.1,29.85,East,84,4.0,7.0,93,0.08,,---,0.20,VWS V14.00,2013-07-21 17:05:00,
2013-07-21 12:08:00,74.3,72.2,29.85,East,84,2.0,4.0,93,0.08,,---,0.20,VWS V14.00,2013-07-21 17:08:00,
2013-07-21 12:10:00,74.4,72.2,29.85,East,84,4.0,6.0,93,0.09,,---,0.21,VWS V14.00,2013-07-21 17:10:00,
2013-07-21 12:13:00,74.4,72.2,29.85,East,84,2.0,5.0,93,0.09,,---,0.21,VWS V14.00,2013-07-21 17:13:00,
2013-07-21 12:15:00,74.5,72.7,29.85,East,84,5.0,5.0,94,0.07,,---,0.21,VWS V14.00,2013-07-21 17:15:00,
2013-07-21 12:18:00,74.6,72.8,29.85,East,84,3.0,5.0,94,0.07,,---,0.22,VWS V14.00,2013-07-21 17:18:00,
2013-07-21 12:20:00,74.8,73.0,29.84,East,84,4.0,5.0,94,0.07,,---,0.22,VWS V14.00,2013-07-21 17:20:00,
2013-07-21 12:23:00,74.9,73.1,29.84,East,84,6.0,7.0,94,0.07,,---,0.22,VWS V14.00,2013-07-21 17:23:00,
2013-07-21 12:25:00,74.9,73.1,29.85,East,84,4.0,7.0,94,0.07,,---,0.23,VWS V14.00,2013-07-21 17:25:00,
2013-07-21 12:28:00,75.1,73.3,29.84,East,84,7.0,7.0,94,0.07,,---,0.23,VWS V14.00,2013-07-21 17:28:00,
2013-07-21 12:30:00,75.1,72.9,29.84,East,84,6.0,9.0,93,0.07,,---,0.23,VWS V14.00,2013-07-21 17:30:00,
2013-07-21 12:33:00,75.2,73.0,29.84,East,87,10.0,10.0,93,0.07,,---,0.23,VWS V14.00,2013-07-21 17:33:00,
2013-07-21 12:35:00,75.3,73.1,29.84,East,91,6.0,10.0,93,0.06,,---,0.24,VWS V14.00,2013-07-21 17:35:00,
2013-07-21 12:38:00,75.4,73.2,29.84,East,91,4.0,7.0,93,0.06,,---,0.24,VWS V14.00,2013-07-21 17:38:00,
2013-07-21 12:40:00,75.5,73.3,29.84,ESE,113,6.0,14.0,93,0.06,,---,0.24,VWS V14.00,2013-07-21 17:40:00,
2013-07-21 12:43:00,75.5,73.3,29.84,ESE,113,6.0,9.0,93,0.06,,---,0.24,VWS V14.00,2013-07-21 17:43:00,
2013-07-21 12:45:00,75.6,73.4,29.84,ESE,115,7.0,11.0,93,0.06,,---,0.24,VWS V14.00,2013-07-21 17:45:00,
2013-07-21 12:48:00,75.6,73.4,29.84,ESE,115,4.0,9.0,93,0.05,,---,0.25,VWS V14.00,2013-07-21 17:48:00,
2013-07-21 12:50:00,75.8,73.6,29.84,ESE,115,2.0,9.0,93,0.05,,---,0.25,VWS V14.00,2013-07-21 17:50:00,
2013-07-21 12:53:00,75.9,73.7,29.84,ESE,115,4.0,4.0,93,0.05,,---,0.25,VWS V14.00,2013-07-21 17:53:00,
2013-07-21 12:55:00,76.1,73.9,29.84,ESE,115,0.0,7.0,93,0.05,,---,0.25,VWS V14.00,2013-07-21 17:55:00,
2013-07-21 12:58:00,76.1,73.9,29.84,ESE,115,5.0,5.0,93,0.05,,---,0.25,VWS V14.00,2013-07-21 17:58:00,
2013-07-21 13:00:00,76.4,74.2,29.84,ESE,111,6.0,7.0,93,0.04,,---,0.25,VWS V14.00,2013-07-21 18:00:00,
2013-07-21 13:03:00,76.4,73.9,29.84,ESE,109,6.0,7.0,92,0.04,,---,0.25,VWS V14.00,2013-07-21 18:03:00,
2013-07-21 13:05:00,76.4,73.9,29.84,ESE,102,4.0,7.0,92,0.00,,---,0.25,VWS V14.00,2013-07-21 18:05:00,
2013-07-21 13:08:00,76.5,74.0,29.84,ESE,102,6.0,6.0,92,0.00,,---,0.26,VWS V14.00,2013-07-21 18:08:00,
2013-07-21 13:10:00,76.7,74.2,29.84,East,96,5.0,7.0,92,0.00,,---,0.26,VWS V14.00,2013-07-21 18:10:00,
2013-07-21 13:13:00,76.8,74.3,29.84,East,96,5.0,5.0,92,0.00,,---,0.26,VWS V14.00,2013-07-21 18:13:00,
2013-07-21 13:15:00,77.0,74.2,29.84,East,91,3.0,8.0,91,0.00,,---,0.26,VWS V14.00,2013-07-21 18:15:00,
2013-07-21 13:18:00,77.0,74.2,29.84,East,91,2.0,6.0,91,0.00,,---,0.26,VWS V14.00,2013-07-21 18:18:00,
2013-07-21 13:20:00,77.2,74.0,29.84,East,91,5.0,6.0,90,0.00,,---,0.26,VWS V14.00,2013-07-21 18:20:00,
2013-07-21 13:23:00,77.3,74.1,29.84,East,90,5.0,7.0,90,0.00,,---,0.26,VWS V14.00,2013-07-21 18:23:00,
2013-07-21 13:25:00,77.5,74.3,29.84,East,90,6.0,7.0,90,0.00,,---,0.26,VWS V14.00,2013-07-21 18:25:00,
2013-07-21 13:28:00,77.5,74.3,29.84,East,90,4.0,7.0,90,0.00,,---,0.26,VWS V14.00,2013-07-21 18:28:00,
2013-07-21 13:30:00,77.7,74.2,29.84,East,90,3.0,9.0,89,0.00,,---,0.26,VWS V14.00,2013-07-21 18:30:00,
2013-07-21 13:33:00,77.8,74.3,29.83,East,88,5.0,8.0,89,0.00,,---,0.26,VWS V14.00,2013-07-21 18:33:00,
2013-07-21 13:35:00,78.0,74.5,29.83,East,85,6.0,8.0,89,0.00,,---,0.26,VWS V14.00,2013-07-21 18:35:00,
2013-07-21 13:38:00,78.2,74.7,29.83,East,85,6.0,6.0,89,0.00,,---,0.26,VWS V14.00,2013-07-21 18:38:00,
2013-07-21 13:40:00,78.3,74.5,29.83,East,80,6.0,8.0,88,0.00,,---,0.26,VWS V14.00,2013-07-21 18:40:00,
2013-07-21 13:43:00,78.4,74.2,29.83,ENE,78,9.0,9.0,87,0.00,,---,0.26,VWS V14.00,2013-07-21 18:43:00,
2013-07-21 13:45:00,78.4,74.2,29.82,ENE,75,9.0,9.0,87,0.00,,---,0.26,VWS V14.00,2013-07-21 18:45:00,
2013-07-21 13:48:00,78.4,74.2,29.82,ENE,76,7.0,9.0,87,0.00,,---,0.26,VWS V14.00,2013-07-21 18:48:00,
2013-07-21 13:50:00,78.5,74.3,29.82,ENE,75,6.0,10.0,87,0.00,,---,0.26,VWS V14.00,2013-07-21 18:50:00,
2013-07-21 13:53:00,78.5,74.0,29.82,ENE,75,6.0,7.0,86,0.00,,---,0.26,VWS V14.00,2013-07-21 18:53:00,
2013-07-21 13:55:00,78.6,74.1,29.82,ENE,77,5.0,9.0,86,0.00,,---,0.26,VWS V14.00,2013-07-21 18:55:00,
2013-07-21 13:58:00,78.6,74.1,29.82,East,79,6.0,9.0,86,0.00,,---,0.26,VWS V14.00,2013-07-21 18:58:00,
2013-07-21 14:00:00,78.7,74.5,29.82,East,79,5.0,9.0,87,0.00,,---,0.26,VWS V14.00,2013-07-21 19:00:00,
2013-07-21 14:03:00,78.7,74.2,29.82,East,79,5.0,6.0,86,0.00,,---,0.26,VWS V14.00,2013-07-21 19:03:00,
2013-07-21 14:05:00,78.7,74.2,29.82,East,80,9.0,9.0,86,0.00,,---,0.26,VWS V14.00,2013-07-21 19:05:00,
2013-07-21 14:08:00,78.7,74.2,29.82,East,80,5.0,9.0,86,0.00,,---,0.26,VWS V14.00,2013-07-21 19:08:00,
2013-07-21 14:10:00,78.9,74.4,29.82,East,80,6.0,9.0,86,0.00,,---,0.26,VWS V14.00,2013-07-21 19:10:00,
2013-07-21 14:13:00,79.0,74.5,29.82,East,81,7.0,7.0,86,0.00,,---,0.26,VWS V14.00,2013-07-21 19:13:00,
2013-07-21 14:15:00,79.1,74.6,29.81,East,81,5.0,7.0,86,0.00,,---,0.26,VWS V14.00,2013-07-21 19:15:00,
2013-07-21 14:18:00,79.2,74.7,29.81,East,81,6.0,10.0,86,0.00,,---,0.26,VWS V14.00,2013-07-21 19:18:00,
2013-07-21 14:20:00,79.4,74.8,29.81,East,91,5.0,10.0,86,0.00,,---,0.26,VWS V14.00,2013-07-21 19:20:00,
2013-07-21 14:23:00,79.5,74.9,29.81,East,91,8.0,9.0,86,0.00,,---,0.26,VWS V14.00,2013-07-21 19:23:00,
2013-07-21 14:25:00,79.7,74.8,29.80,East,92,7.0,9.0,85,0.00,,---,0.26,VWS V14.00,2013-07-21 19:25:00,
2013-07-21 14:28:00,79.8,74.9,29.81,East,92,7.0,8.0,85,0.00,,---,0.26,VWS V14.00,2013-07-21 19:28:00,
2013-07-21 14:30:00,80.1,75.2,29.81,East,99,5.0,10.0,85,0.00,,---,0.26,VWS V14.00,2013-07-21 19:30:00,
2013-07-21 14:33:00,80.2,75.3,29.80,ESE,106,5.0,10.0,85,0.00,,---,0.26,VWS V14.00,2013-07-21 19:33:00,
2013-07-21 14:35:00,80.4,75.5,29.80,ESE,102,9.0,10.0,85,0.00,,---,0.26,VWS V14.00,2013-07-21 19:35:00,
2013-07-21 14:38:00,80.5,75.2,29.80,ESE,102,6.0,9.0,84,0.00,,---,0.26,VWS V14.00,2013-07-21 19:38:00,
2013-07-21 14:40:00,80.7,75.4,29.80,ESE,103,6.0,9.0,84,0.00,,---,0.26,VWS V14.00,2013-07-21 19:40:00,
2013-07-21 14:43:00,80.7,75.4,29.80,ESE,106,6.0,9.0,84,0.00,,---,0.26,VWS V14.00,2013-07-21 19:43:00,
2013-07-21 14:45:00,80.9,75.6,29.79,ESE,108,6.0,10.0,84,0.00,,---,0.26,VWS V14.00,2013-07-21 19:45:00,
2013-07-21 14:48:00,81.0,75.7,29.79,ESE,105,8.0,9.0,84,0.00,,---,0.26,VWS V14.00,2013-07-21 19:48:00,
2013-07-21 14:50:00,81.2,75.6,29.79,ESE,114,5.0,11.0,83,0.00,,---,0.26,VWS V14.00,2013-07-21 19:50:00,
2013-07-21 14:53:00,81.3,75.7,29.79,ESE,116,6.0,10.0,83,0.00,,---,0.26,VWS V14.00,2013-07-21 19:53:00,
2013-07-21 14:55:00,81.5,75.5,29.79,SE,129,6.0,11.0,82,0.00,,---,0.26,VWS V14.00,2013-07-21 19:55:00,
2013-07-21 14:58:00,81.7,75.7,29.79,SE,129,4.0,9.0,82,0.00,,---,0.26,VWS V14.00,2013-07-21 19:58:00,
2013-07-21 15:00:00,82.1,76.1,29.78,ESE,113,6.0,11.0,82,0.00,,---,0.26,VWS V14.00,2013-07-21 20:00:00,
2013-07-21 15:03:00,82.2,75.8,29.78,ESE,113,9.0,11.0,81,0.00,,---,0.26,VWS V14.00,2013-07-21 20:03:00,
2013-07-21 15:05:00,82.6,76.2,29.78,ESE,116,5.0,12.0,81,0.00,,---,0.26,VWS V14.00,2013-07-21 20:05:00,
2013-07-21 15:08:00,82.8,76.4,29.78,ESE,113,6.0,7.0,81,0.00,,---,0.26,VWS V14.00,2013-07-21 20:08:00,
2013-07-21 15:10:00,83.1,76.3,29.78,SE,138,7.0,12.0,80,0.00,,---,0.26,VWS V14.00,2013-07-21 20:10:00,
2013-07-21 15:13:00,83.3,76.5,29.78,SE,140,10.0,10.0,80,0.00,,---,0.26,VWS V14.00,2013-07-21 20:13:00,
2013-07-21 15:15:00,83.7,76.5,29.78,SE,139,9.0,11.0,79,0.00,,---,0.26,VWS V14.00,2013-07-21 20:15:00,
2013-07-21 15:18:00,83.8,76.2,29.78,SSE,153,10.0,12.0,78,0.00,,---,0.26,VWS V14.00,2013-07-21 20:18:00,
2013-07-21 15:20:00,84.3,76.7,29.78,SE,146,8.0,12.0,78,0.00,,---,0.26,VWS V14.00,2013-07-21 20:20:00,
2013-07-21 15:23:00,84.6,77.0,29.78,SSE,160,10.0,14.0,78,0.00,,---,0.26,VWS V14.00,2013-07-21 20:23:00,
2013-07-21 15:25:00,84.8,76.4,29.78,SE,146,6.0,14.0,76,0.00,,---,0.26,VWS V14.00,2013-07-21 20:25:00,
2013-07-21 15:28:00,84.9,76.5,29.78,SE,126,10.0,11.0,76,0.00,,---,0.26,VWS V14.00,2013-07-21 20:28:00,
2013-07-21 15:30:00,84.9,76.9,29.77,ESE,117,5.0,11.0,77,0.00,,---,0.26,VWS V14.00,2013-07-21 20:30:00,
2013-07-21 15:33:00,84.9,76.9,29.77,ESE,120,10.0,11.0,77,0.00,,---,0.26,VWS V14.00,2013-07-21 20:33:00,
2013-07-21 15:35:00,84.9,76.9,29.77,SE,130,5.0,11.0,77,0.00,,---,0.26,VWS V14.00,2013-07-21 20:35:00,
2013-07-21 15:38:00,84.9,76.9,29.77,SE,137,5.0,9.0,77,0.00,,---,0.26,VWS V14.00,2013-07-21 20:38:00,
2013-07-21 15:40:00,85.4,77.8,29.77,SE,143,10.0,13.0,78,0.00,,---,0.26,VWS V14.00,2013-07-21 20:40:00,
2013-07-21 15:43:00,85.5,77.9,29.77,SE,145,5.0,10.0,78,0.00,,---,0.26,VWS V14.00,2013-07-21 20:43:00,
2013-07-21 15:45:00,86.0,77.6,29.76,SSE,154,11.0,11.0,76,0.00,,---,0.26,VWS V14.00,2013-07-21 20:45:00,
2013-07-21 15:48:00,86.2,77.8,29.76,SSE,165,10.0,11.0,76,0.00,,---,0.26,VWS V14.00,2013-07-21 20:48:00,
2013-07-21 15:50:00,86.6,78.1,29.76,SSE,164,10.0,13.0,76,0.00,,---,0.26,VWS V14.00,2013-07-21 20:50:00,
2013-07-21 15:53:00,86.8,77.9,29.76,SSE,148,8.0,10.0,75,0.00,,---,0.26,VWS V14.00,2013-07-21 20:53:00,
2013-07-21 15:55:00,87.0,77.7,29.76,SSE,161,10.0,15.0,74,0.00,,---,0.26,VWS V14.00,2013-07-21 20:55:00,
2013-07-21 15:58:00,87.1,77.8,29.75,SSE,151,5.0,12.0,74,0.00,,---,0.26,VWS V14.00,2013-07-21 20:58:00,
2013-07-21 16:00:00,87.2,77.5,29.75,South,179,11.0,14.0,73,0.00,,---,0.26,VWS V14.00,2013-07-21 21:00:00,
2013-07-21 16:03:00,87.3,77.6,29.76,South,169,10.0,12.0,73,0.00,,---,0.26,VWS V14.00,2013-07-21 21:03:00,
2013-07-21 16:05:00,87.5,77.8,29.75,SSE,163,9.0,14.0,73,0.00,,---,0.26,VWS V14.00,2013-07-21 21:05:00,
2013-07-21 16:08:00,87.5,77.8,29.75,South,181,9.0,13.0,73,0.00,,---,0.26,VWS V14.00,2013-07-21 21:08:00,
2013-07-21 16:10:00,87.8,78.5,29.75,SSE,166,9.0,15.0,74,0.00,,---,0.26,VWS V14.00,2013-07-21 21:10:00,
2013-07-21 16:13:00,87.8,78.1,29.75,South,184,7.0,15.0,73,0.00,,---,0.26,VWS V14.00,2013-07-21 21:13:00,
2013-07-21 16:15:00,88.0,77.8,29.75,SSE,163,7.0,15.0,72,0.00,,---,0.26,VWS V14.00,2013-07-21 21:15:00,
2013-07-21 16:18:00,88.1,78.4,29.75,SE,142,6.0,13.0,73,0.00,,---,0.26,VWS V14.00,2013-07-21 21:18:00,
2013-07-21 16:20:00,88.2,78.0,29.75,South,189,4.0,16.0,72,0.00,,---,0.26,VWS V14.00,2013-07-21 21:20:00,
2013-07-21 16:23:00,88.3,77.7,29.75,SSE,161,7.0,11.0,71,0.00,,---,0.26,VWS V14.00,2013-07-21 21:23:00,
2013-07-21 16:25:00,88.5,77.9,29.75,SSE,162,9.0,17.0,71,0.00,,---,0.26,VWS V14.00,2013-07-21 21:25:00,
2013-07-21 16:28:00,88.5,77.5,29.75,SE,131,11.0,11.0,70,0.00,,---,0.26,VWS V14.00,2013-07-21 21:28:00,
2013-07-21 16:30:00,88.7,78.1,29.75,SSE,161,9.0,11.0,71,0.00,,---,0.26,VWS V14.00,2013-07-21 21:30:00,
2013-07-21 16:33:00,88.7,77.7,29.75,South,184,12.0,13.0,70,0.00,,---,0.26,VWS V14.00,2013-07-21 21:33:00,
2013-07-21 16:35:00,88.9,77.8,29.75,South,171,9.0,15.0,70,0.00,,---,0.26,VWS V14.00,2013-07-21 21:35:00,
2013-07-21 16:38:00,89.0,77.9,29.74,SSW,194,12.0,14.0,70,0.00,,---,0.26,VWS V14.00,2013-07-21 21:38:00,
2013-07-21 16:40:00,89.2,76.8,29.74,SSW,200,10.0,18.0,67,0.00,,---,0.26,VWS V14.00,2013-07-21 21:40:00,
2013-07-21 16:43:00,89.2,76.4,29.74,SSW,195,10.0,13.0,66,0.00,,---,0.26,VWS V14.00,2013-07-21 21:43:00,
2013-07-21 16:45:00,89.4,77.0,29.74,South,179,9.0,14.0,67,0.00,,---,0.26,VWS V14.00,2013-07-21 21:45:00,
2013-07-21 16:48:00,89.5,76.7,29.74,SSE,151,6.0,12.0,66,0.00,,---,0.26,VWS V14.00,2013-07-21 21:48:00,
2013-07-21 16:50:00,89.7,76.8,29.74,South,186,10.0,14.0,66,0.00,,---,0.26,VWS V14.00,2013-07-21 21:50:00,
2013-07-21 16:53:00,89.7,76.4,29.74,South,177,6.0,15.0,65,0.00,,---,0.26,VWS V14.00,2013-07-21 21:53:00,
2013-07-21 16:55:00,89.9,77.0,29.74,SSE,161,4.0,15.0,66,0.00,,---,0.26,VWS V14.00,2013-07-21 21:55:00,
2013-07-21 16:58:00,90.0,77.1,29.74,SSE,165,5.0,9.0,66,0.00,,---,0.26,VWS V14.00,2013-07-21 21:58:00,
2013-07-21 17:00:00,90.2,75.9,29.74,South,182,10.0,16.0,63,0.00,,---,0.26,VWS V14.00,2013-07-21 22:00:00,
2013-07-21 17:03:00,90.3,76.5,29.74,South,169,11.0,15.0,64,0.00,,---,0.26,VWS V14.00,2013-07-21 22:03:00,
2013-07-21 17:05:00,90.3,75.0,29.74,SSW,203,4.0,15.0,61,0.00,,---,0.26,VWS V14.00,2013-07-21 22:05:00,
2013-07-21 17:08:00,90.4,76.1,29.74,SSW,203,4.0,6.0,63,0.00,,---,0.26,VWS V14.00,2013-07-21 22:08:00,
2013-07-21 17:10:00,90.6,76.3,29.74,South,186,7.0,14.0,63,0.00,,---,0.26,VWS V14.00,2013-07-21 22:10:00,
2013-07-21 17:13:00,90.7,76.4,29.74,South,183,3.0,7.0,63,0.00,,---,0.26,VWS V14.00,2013-07-21 22:13:00,
2013-07-21 17:15:00,90.9,76.1,29.74,South,186,6.0,11.0,62,0.00,,---,0.26,VWS V14.00,2013-07-21 22:15:00,
2013-07-21 17:18:00,90.9,75.6,29.74,SSW,196,8.0,13.0,61,0.00,,---,0.26,VWS V14.00,2013-07-21 22:18:00,
2013-07-21 17:20:00,91.1,75.8,29.74,SSW,202,11.0,13.0,61,0.00,,---,0.26,VWS V14.00,2013-07-21 22:20:00,
2013-07-21 17:23:00,91.1,75.8,29.73,SW,223,13.0,15.0,61,0.00,,---,0.26,VWS V14.00,2013-07-21 22:23:00,
2013-07-21 17:25:00,91.3,76.9,29.73,South,182,8.0,15.0,63,0.00,,---,0.26,VWS V14.00,2013-07-21 22:25:00,
2013-07-21 17:28:00,91.3,76.5,29.73,South,181,9.0,13.0,62,0.00,,---,0.26,VWS V14.00,2013-07-21 22:28:00,
2013-07-21 17:30:00,91.4,76.1,29.74,SSE,160,4.0,13.0,61,0.00,,---,0.26,VWS V14.00,2013-07-21 22:30:00,
2013-07-21 17:35:00,91.4,76.6,29.74,SSW,204,10.0,12.0,62,0.00,,---,0.26,VWS V14.00,2013-07-21 22:35:00,
2013-07-21 17:40:00,91.4,75.6,29.73,SSW,202,7.0,14.0,60,0.00,,---,0.00,VWS V14.00,2013-07-21 22:40:00,
2013-07-21 17:45:00,91.4,74.6,29.73,SSW,202,8.0,12.0,58,0.00,,---,0.00,VWS V14.00,2013-07-21 22:45:00,
2013-07-21 17:50:00,91.4,76.1,29.73,SSW,202,6.0,10.0,61,0.00,,---,0.00,VWS V14.00,2013-07-21 22:50:00,
2013-07-21 18:00:00,91.8,76.4,29.73,South,180,7.0,12.0,61,0.00,,---,0.00,VWS V14.00,2013-07-21 23:00:00,
2013-07-21 18:05:00,91.8,75.9,29.73,South,180,8.0,13.0,60,0.00,,---,0.00,VWS V14.00,2013-07-21 23:05:00,
2013-07-21 18:10:00,91.8,76.4,29.73,South,180,6.0,10.0,61,0.00,,---,0.00,VWS V14.00,2013-07-21 23:10:00,
2013-07-21 18:15:00,91.8,75.9,29.73,South,180,7.0,13.0,60,0.00,,---,0.00,VWS V14.00,2013-07-21 23:15:00,
2013-07-21 18:20:00,91.8,76.4,29.73,South,180,7.0,13.0,61,0.00,,---,0.00,VWS V14.00,2013-07-21 23:20:00,
2013-07-21 18:25:00,91.8,76.9,29.73,South,180,6.0,11.0,62,0.00,,---,0.00,VWS V14.00,2013-07-21 23:25:00,
2013-07-21 18:30:00,91.7,76.3,29.73,SSE,158,6.0,11.0,61,0.00,,---,0.00,VWS V14.00,2013-07-21 23:30:00,
2013-07-21 18:35:00,91.5,76.7,29.73,SE,135,5.0,9.0,62,0.00,,---,0.00,VWS V14.00,2013-07-21 23:35:00,
2013-07-21 18:40:00,91.3,76.0,29.73,SSE,158,5.0,10.0,61,0.00,,---,0.00,VWS V14.00,2013-07-21 23:40:00,
2013-07-21 18:45:00,91.2,76.4,29.74,SSE,158,4.0,7.0,62,0.00,,---,0.00,VWS V14.00,2013-07-21 23:45:00,
2013-07-21 18:50:00,91.3,76.5,29.74,SSE,158,4.0,9.0,62,0.00,,---,0.00,VWS V14.00,2013-07-21 23:50:00,
2013-07-21 18:55:00,91.2,75.9,29.74,SSE,158,6.0,9.0,61,0.00,,---,0.00,VWS V14.00,2013-07-21 23:55:00,
2013-07-21 19:00:00,91.1,75.8,29.74,SSE,158,6.0,14.0,61,0.00,,---,0.00,VWS V14.00,2013-07-22 00:00:00,
2013-07-21 19:05:00,91.0,75.7,29.74,South,180,5.0,10.0,61,0.00,,---,0.00,VWS V14.00,2013-07-22 00:05:00,
2013-07-21 19:10:00,90.8,76.0,29.74,South,180,4.0,7.0,62,0.00,,---,0.00,VWS V14.00,2013-07-22 00:10:00,
2013-07-21 19:15:00,90.7,75.9,29.74,South,180,4.0,8.0,62,0.00,,---,0.00,VWS V14.00,2013-07-22 00:15:00,
2013-07-21 19:20:00,90.6,76.3,29.74,South,180,5.0,8.0,63,0.00,,---,0.00,VWS V14.00,2013-07-22 00:20:00,
2013-07-21 19:25:00,90.5,76.2,29.74,South,180,4.0,7.0,63,0.00,,---,0.00,VWS V14.00,2013-07-22 00:25:00,
2013-07-21 19:30:00,90.3,76.0,29.74,South,180,5.0,10.0,63,0.00,,---,0.00,VWS V14.00,2013-07-22 00:30:00,
2013-07-21 19:35:00,90.2,76.4,29.74,South,180,3.0,6.0,64,0.00,,---,0.00,VWS V14.00,2013-07-22 00:35:00,
2013-07-21 19:40:00,90.1,76.3,29.74,SSE,158,4.0,7.0,64,0.00,,---,0.00,VWS V14.00,2013-07-22 00:40:00,
2013-07-21 19:45:00,89.9,76.6,29.74,SSE,158,3.0,6.0,65,0.00,,---,0.00,VWS V14.00,2013-07-22 00:45:00,
2013-07-21 19:50:00,89.8,76.5,29.74,SSE,158,3.0,5.0,65,0.00,,---,0.00,VWS V14.00,2013-07-22 00:50:00,
2013-07-21 19:55:00,89.6,76.7,29.74,SSE,158,2.0,4.0,66,0.00,,---,0.00,VWS V14.00,2013-07-22 00:55:00,
2013-07-21 20:00:00,89.3,76.5,29.74,SSE,158,1.0,3.0,66,0.00,,---,0.00,VWS V14.00,2013-07-22 01:00:00,
2013-07-21 20:05:00,89.1,76.3,29.74,SSE,158,2.0,5.0,66,0.00,,---,0.00,VWS V14.00,2013-07-22 01:05:00,
2013-07-21 20:10:00,88.7,76.3,29.74,SSE,158,3.0,5.0,67,0.00,,---,0.00,VWS V14.00,2013-07-22 01:10:00,
2013-07-21 20:15:00,88.3,76.4,29.74,SSE,158,2.0,4.0,68,0.00,,---,0.00,VWS V14.00,2013-07-22 01:15:00,
2013-07-21 20:20:00,88.0,76.6,29.74,SSE,158,3.0,4.0,69,0.00,,---,0.00,VWS V14.00,2013-07-22 01:20:00,
2013-07-21 20:25:00,87.6,76.2,29.74,SSE,158,3.0,5.0,69,0.00,,---,0.00,VWS V14.00,2013-07-22 01:25:00,
2013-07-21 20:30:00,87.2,75.8,29.74,SSE,158,3.0,5.0,69,0.00,,---,0.00,VWS V14.00,2013-07-22 01:30:00,
2013-07-21 20:35:00,86.8,75.8,29.74,SSE,158,3.0,6.0,70,0.00,,---,0.00,VWS V14.00,2013-07-22 01:35:00,
2013-07-21 20:40:00,86.5,75.6,29.73,SSE,158,3.0,5.0,70,0.00,,---,0.00,VWS V14.00,2013-07-22 01:40:00,
2013-07-21 20:45:00,86.1,75.6,29.74,SSE,158,3.0,9.0,71,0.00,,---,0.00,VWS V14.00,2013-07-22 01:45:00,
2013-07-21 20:50:00,85.8,75.3,29.73,SSE,158,4.0,6.0,71,0.00,,---,0.00,VWS V14.00,2013-07-22 01:50:00,
2013-07-21 20:55:00,85.5,75.4,29.74,SSE,158,3.0,6.0,72,0.00,,---,0.00,VWS V14.00,2013-07-22 01:55:00,
2013-07-21 21:00:00,85.2,75.2,29.74,SSE,158,4.0,6.0,72,0.00,,---,0.00,VWS V14.00,2013-07-22 02:00:00,
2013-07-21 21:05:00,84.9,74.9,29.74,SSE,158,3.0,6.0,72,0.00,,---,0.00,VWS V14.00,2013-07-22 02:05:00,
2013-07-21 21:10:00,84.7,75.1,29.74,SSE,158,3.0,6.0,73,0.00,,---,0.00,VWS V14.00,2013-07-22 02:10:00,
2013-07-21 21:15:00,84.5,74.9,29.74,SSE,158,3.0,6.0,73,0.00,,---,0.00,VWS V14.00,2013-07-22 02:15:00,
2013-07-21 21:20:00,84.3,74.7,29.74,SSE,158,3.0,5.0,73,0.00,,---,0.00,VWS V14.00,2013-07-22 02:20:00,
2013-07-21 21:25:00,84.2,75.0,29.74,SSE,158,3.0,7.0,74,0.00,,---,0.00,VWS V14.00,2013-07-22 02:25:00,
2013-07-21 21:30:00,84.0,74.8,29.74,SSE,158,4.0,6.0,74,0.00,,---,0.00,VWS V14.00,2013-07-22 02:30:00,
2013-07-21 21:35:00,83.9,74.7,29.74,SSE,158,4.0,7.0,74,0.00,,---,0.00,VWS V14.00,2013-07-22 02:35:00,
2013-07-21 21:40:00,83.8,74.6,29.74,SSE,158,4.0,7.0,74,0.00,,---,0.00,VWS V14.00,2013-07-22 02:40:00,
2013-07-21 21:45:00,83.6,74.8,29.75,SSE,158,4.0,6.0,75,0.00,,---,0.00,VWS V14.00,2013-07-22 02:45:00,
2013-07-21 21:50:00,83.5,74.8,29.75,SSE,158,4.0,7.0,75,0.00,,---,0.00,VWS V14.00,2013-07-22 02:50:00,
2013-07-21 21:55:00,83.4,74.7,29.75,SSE,158,4.0,7.0,75,0.00,,---,0.00,VWS V14.00,2013-07-22 02:55:00,
2013-07-21 22:00:00,83.3,74.6,29.75,SSE,158,4.0,6.0,75,0.00,,---,0.00,VWS V14.00,2013-07-22 03:00:00,
2013-07-21 22:05:00,83.2,74.5,29.75,SSE,158,4.0,9.0,75,0.00,,---,0.00,VWS V14.00,2013-07-22 03:05:00,
2013-07-21 22:10:00,83.1,74.4,29.75,SSE,158,6.0,10.0,75,0.00,,---,0.00,VWS V14.00,2013-07-22 03:10:00,
2013-07-21 22:15:00,83.0,74.3,29.75,SSE,158,7.0,12.0,75,0.00,,---,0.00,VWS V14.00,2013-07-22 03:15:00,
2013-07-21 22:20:00,82.9,73.8,29.75,SSE,158,8.0,14.0,74,0.00,,---,0.00,VWS V14.00,2013-07-22 03:20:00,
2013-07-21 22:25:00,83.0,73.9,29.76,SSE,158,7.0,13.0,74,0.00,,---,0.00,VWS V14.00,2013-07-22 03:25:00,
2013-07-21 22:30:00,83.0,73.9,29.76,SSE,158,7.0,13.0,74,0.00,,---,0.00,VWS V14.00,2013-07-22 03:30:00,
2013-07-21 22:35:00,83.0,73.5,29.76,South,180,7.0,12.0,73,0.00,,---,0.00,VWS V14.00,2013-07-22 03:35:00,
2013-07-21 22:40:00,83.0,73.5,29.76,SSE,158,6.0,11.0,73,0.00,,---,0.00,VWS V14.00,2013-07-22 03:40:00,
2013-07-21 22:45:00,83.0,73.5,29.76,South,180,8.0,12.0,73,0.00,,---,0.00,VWS V14.00,2013-07-22 03:45:00,
2013-07-21 22:50:00,82.9,73.4,29.76,South,180,9.0,15.0,73,0.00,,---,0.00,VWS V14.00,2013-07-22 03:50:00,
2013-07-21 22:55:00,83.0,73.1,29.76,South,180,9.0,14.0,72,0.00,,---,0.00,VWS V14.00,2013-07-22 03:55:00,
2013-07-21 23:00:00,83.1,72.7,29.76,South,180,9.0,14.0,71,0.00,,---,0.00,VWS V14.00,2013-07-22 04:00:00,
2013-07-21 23:05:00,83.2,72.8,29.76,South,180,10.0,18.0,71,0.00,,---,0.00,VWS V14.00,2013-07-22 04:05:00,
2013-07-21 23:10:00,83.3,72.5,29.76,South,180,10.0,16.0,70,0.00,,---,0.00,VWS V14.00,2013-07-22 04:10:00,
2013-07-21 23:15:00,83.4,72.6,29.76,South,180,11.0,16.0,70,0.00,,---,0.00,VWS V14.00,2013-07-22 04:15:00,
2013-07-21 23:20:00,83.4,72.6,29.76,South,180,11.0,17.0,70,0.00,,---,0.00,VWS V14.00,2013-07-22 04:20:00,
2013-07-21 23:25:00,83.4,72.6,29.76,South,180,10.0,14.0,70,0.00,,---,0.00,VWS V14.00,2013-07-22 04:25:00,
2013-07-21 23:30:00,83.4,72.6,29.76,South,180,9.0,15.0,70,0.00,,---,0.00,VWS V14.00,2013-07-22 04:30:00,
2013-07-21 23:35:00,83.2,72.4,29.76,South,180,10.0,17.0,70,0.00,,---,0.00,VWS V14.00,2013-07-22 04:35:00,
2013-07-21 23:40:00,83.2,72.4,29.76,South,180,9.0,14.0,70,0.00,,---,0.00,VWS V14.00,2013-07-22 04:40:00,
2013-07-21 23:45:00,83.0,72.2,29.76,South,180,9.0,14.0,70,0.00,,---,0.00,VWS V14.00,2013-07-22 04:45:00,
2013-07-21 23:50:00,82.9,72.1,29.76,South,180,9.0,13.0,70,0.00,,---,0.00,VWS V14.00,2013-07-22 04:50:00,
2013-07-21 23:55:00,82.8,72.4,29.76,South,180,8.0,14.0,71,0.00,,---,0.00,VWS V14.00,2013-07-22 04:55:00,